Time;durP1;ratioP1;P1;durP2;ratioP2;P2;SDS_P1;SDS_P2;PMS_P1;PMS_P2;Temp;Humidity;BMP_temperature;BMP_pressure;BME280_temperature;BME280_humidity;BME280_pressure;Samples;Min_cycle;Max_cycle;Signal;HPM_P1;HPM_P2
2022/09/03 00:00:16;;;;;;;2.65;0.70;;;17.40;60.00;;;;;;4172131;28;20059;-87
2022/09/03 00:02:23;;;;;;;1.38;0.70;;;17.40;60.30;;;;;;4173136;28;20046;-87
2022/09/03 00:04:42;;;;;;;0.77;0.65;;;17.30;60.70;;;;;;4156909;28;20068;-87
2022/09/03 00:06:49;;;;;;;2.90;0.82;;;17.20;61.20;;;;;;4142739;28;20504;-86
2022/09/03 00:09:21;;;;;;;2.65;0.80;;;17.20;61.00;;;;;;4136555;28;20054;-86
2022/09/03 00:11:31;;;;;;;4.40;0.80;;;17.10;61.20;;;;;;4173163;28;20076;-86
2022/09/03 00:13:53;;;;;;;2.78;1.35;;;17.20;61.00;;;;;;4166734;28;20053;-87
2022/09/03 00:15:58;;;;;;;2.95;0.80;;;17.10;61.20;;;;;;4166504;28;20050;-86
2022/09/03 00:18:09;;;;;;;3.22;0.90;;;17.00;61.30;;;;;;4167588;28;20045;-87
2022/09/03 00:20:27;;;;;;;4.50;0.75;;;17.00;61.80;;;;;;4167133;28;20091;-87
2022/09/03 00:22:33;;;;;;;4.28;0.95;;;17.00;62.20;;;;;;4133485;28;20061;-87
2022/09/03 00:24:40;;;;;;;1.35;0.90;;;16.90;61.60;;;;;;4150151;28;20104;-86
2022/09/03 00:26:46;;;;;;;1.80;0.75;;;16.80;61.90;;;;;;4132697;28;20062;-86
2022/09/03 00:29:02;;;;;;;1.73;1.00;;;16.80;62.00;;;;;;4132994;28;20574;-87
2022/09/03 00:31:17;;;;;;;2.85;1.10;;;16.70;62.70;;;;;;4166603;28;20049;-86
2022/09/03 00:33:22;;;;;;;3.30;1.05;;;16.70;62.60;;;;;;4165481;28;20526;-86
2022/09/03 00:35:48;;;;;;;3.15;1.17;;;16.70;62.30;;;;;;4148530;28;20125;-86
2022/09/03 00:37:54;;;;;;;1.05;0.70;;;16.60;62.80;;;;;;4166643;28;20049;-86
2022/09/03 00:39:55;;;;;;;1.25;0.70;;;16.60;62.70;;;;;;4132346;28;20050;-86
2022/09/03 00:42:06;;;;;;;3.10;1.00;;;16.60;62.60;;;;;;4149487;28;20057;-87
2022/09/03 00:44:10;;;;;;;2.47;1.13;;;16.60;63.10;;;;;;4132737;28;20050;-85
2022/09/03 00:46:23;;;;;;;3.55;0.90;;;16.60;63.10;;;;;;4150968;28;20427;-87
2022/09/03 00:48:29;;;;;;;4.20;1.67;;;16.60;63.20;;;;;;4149960;28;20133;-86
2022/09/03 00:50:52;;;;;;;3.53;0.80;;;16.50;63.30;;;;;;4137290;28;20050;-87
2022/09/03 00:52:53;;;;;;;3.50;0.88;;;16.50;63.50;;;;;;4132523;28;20054;-87
2022/09/03 00:55:21;;;;;;;1.30;0.77;;;16.40;63.40;;;;;;4132800;28;20381;-86
2022/09/03 00:57:44;;;;;;;2.65;0.80;;;16.40;63.80;;;;;;4137106;28;20373;-87
2022/09/03 00:59:48;;;;;;;2.03;0.90;;;16.40;64.10;;;;;;4140333;28;20082;-87
2022/09/03 01:02:14;;;;;;;2.25;0.80;;;16.30;64.00;;;;;;4137148;28;20457;-87
2022/09/03 01:04:56;;;;;;;1.77;0.80;;;16.30;64.40;;;;;;4132876;28;20046;-87
2022/09/03 01:07:21;;;;;;;3.78;0.90;;;16.30;64.90;;;;;;4132560;28;20054;-87
2022/09/03 01:09:48;;;;;;;3.75;0.75;;;16.30;65.00;;;;;;4133825;28;20057;-87
2022/09/03 01:12:14;;;;;;;5.38;0.80;;;16.20;65.10;;;;;;4133011;28;20389;-86
2022/09/03 01:14:37;;;;;;;1.17;0.65;;;16.10;64.80;;;;;;4134030;28;20096;-87
2022/09/03 01:16:54;;;;;;;6.40;1.30;;;16.10;64.80;;;;;;4116633;28;20058;-87
2022/09/03 01:19:03;;;;;;;0.95;0.68;;;16.10;64.80;;;;;;4133883;28;20042;-86
2022/09/03 01:21:21;;;;;;;2.05;0.70;;;16.00;65.10;;;;;;4132626;28;20054;-86
2022/09/03 01:24:00;;;;;;;5.13;0.80;;;16.00;65.60;;;;;;4131874;28;20551;-86
2022/09/03 01:26:34;;;;;;;3.80;0.70;;;15.90;65.90;;;;;;4115835;28;20047;-86
2022/09/03 01:28:59;;;;;;;3.38;0.80;;;15.90;66.00;;;;;;4148827;28;20050;-86
2022/09/03 01:31:17;;;;;;;1.35;0.93;;;15.90;65.80;;;;;;4132637;28;20054;-86
2022/09/03 01:33:30;;;;;;;2.40;0.70;;;15.80;65.80;;;;;;4132476;28;20046;-87
2022/09/03 01:36:21;;;;;;;6.78;1.35;;;15.80;66.20;;;;;;4133243;28;20060;-86
2022/09/03 01:39:01;;;;;;;1.13;0.88;;;15.70;66.90;;;;;;4131458;28;20096;-86
2022/09/03 01:43:57;;;;;;;4.07;1.38;;;15.70;66.10;;;;;;4149355;28;20085;-86
2022/09/03 01:46:04;;;;;;;5.85;1.55;;;15.70;66.70;;;;;;4149828;28;20115;-87
2022/09/03 01:48:13;;;;;;;2.63;0.68;;;15.60;66.30;;;;;;4131738;28;20415;-87
2022/09/03 01:50:23;;;;;;;;;;;15.60;66.70;;;;;;4149816;28;20487;-86
2022/09/03 01:52:42;;;;;;;2.13;1.27;;;15.60;67.60;;;;;;4149691;28;19922;-86
2022/09/03 01:55:19;;;;;;;3.67;0.70;;;15.60;66.80;;;;;;4149956;28;20049;-87
2022/09/03 01:57:40;;;;;;;5.88;0.90;;;15.50;67.10;;;;;;4130559;28;20057;-87
2022/09/03 02:00:09;;;;;;;3.15;1.17;;;15.50;67.50;;;;;;4149331;28;20053;-86
2022/09/03 02:02:20;;;;;;;;;;;15.50;67.80;;;;;;4108652;28;20054;-86
2022/09/03 02:04:23;;;;;;;4.22;1.25;;;15.40;68.30;;;;;;4148539;28;19979;-86
2022/09/03 02:06:30;;;;;;;1.73;1.25;;;15.40;66.60;;;;;;4115184;28;20477;-86
2022/09/03 02:08:31;;;;;;;2.33;0.70;;;15.30;67.00;;;;;;4115549;28;20053;-86
2022/09/03 02:10:37;;;;;;;2.72;0.80;;;15.30;67.30;;;;;;4148847;28;20412;-86
2022/09/03 02:12:41;;;;;;;1.30;0.70;;;15.30;67.70;;;;;;4131845;28;20054;-86
2022/09/03 02:14:43;;;;;;;2.63;0.80;;;15.30;67.70;;;;;;4138613;28;20077;-86
2022/09/03 02:16:45;;;;;;;0.60;0.60;;;15.30;67.80;;;;;;4132568;28;20093;-87
2022/09/03 02:18:49;;;;;;;2.75;0.80;;;15.20;67.90;;;;;;4132709;28;20504;-86
2022/09/03 02:20:54;;;;;;;2.20;0.70;;;15.20;68.00;;;;;;4132373;28;20080;-87
2022/09/03 02:22:56;;;;;;;2.20;0.80;;;15.20;68.40;;;;;;4150103;28;20085;-87
2022/09/03 02:24:57;;;;;;;0.98;0.80;;;15.10;68.30;;;;;;4149685;28;20049;-87
2022/09/03 02:26:58;;;;;;;1.10;0.77;;;15.10;68.50;;;;;;4133284;28;20701;-86
2022/09/03 02:29:01;;;;;;;1.10;0.80;;;15.10;68.70;;;;;;4117686;28;20453;-85
2022/09/03 02:31:02;;;;;;;0.68;0.60;;;15.00;68.90;;;;;;4149061;28;20074;-87
2022/09/03 02:33:03;;;;;;;1.40;0.85;;;15.00;69.00;;;;;;4133899;28;20469;-87
2022/09/03 02:35:06;;;;;;;2.22;0.77;;;15.00;69.10;;;;;;4118208;28;20058;-86
2022/09/03 02:37:15;;;;;;;1.35;0.82;;;14.90;69.20;;;;;;4151467;28;20038;-85
2022/09/03 02:39:17;;;;;;;1.38;1.15;;;15.00;69.70;;;;;;4116878;28;20478;-86
2022/09/03 02:41:19;;;;;;;3.50;1.00;;;14.90;69.50;;;;;;4131354;28;20544;-86
2022/09/03 02:43:31;;;;;;;2.53;0.95;;;14.90;69.70;;;;;;4148284;28;20036;-85
2022/09/03 02:45:31;;;;;;;1.27;0.68;;;14.90;70.00;;;;;;4115439;28;20129;-86
2022/09/03 02:47:35;;;;;;;2.78;0.77;;;14.90;69.80;;;;;;4159061;28;20041;-87
2022/09/03 02:49:37;;;;;;;1.98;0.77;;;14.90;69.80;;;;;;4147925;28;20064;-86
2022/09/03 02:51:42;;;;;;;0.75;0.60;;;14.90;70.00;;;;;;4165609;28;20053;-86
2022/09/03 02:53:43;;;;;;;1.35;0.73;;;14.90;70.10;;;;;;4147760;28;20136;-86
2022/09/03 02:55:44;;;;;;;1.60;0.80;;;14.80;70.10;;;;;;4147402;28;20487;-86
2022/09/03 02:57:47;;;;;;;0.63;0.63;;;14.80;70.20;;;;;;4148454;28;20503;-86
2022/09/03 02:59:49;;;;;;;1.70;0.88;;;14.80;70.50;;;;;;4165428;28;20487;-86
2022/09/03 03:01:50;;;;;;;3.45;0.60;;;14.80;70.50;;;;;;4147559;28;20500;-85
2022/09/03 03:03:51;;;;;;;2.72;0.90;;;14.70;70.50;;;;;;4132058;28;20176;-86
2022/09/03 03:05:57;;;;;;;5.05;0.90;;;14.70;70.60;;;;;;4130274;28;20134;-86
2022/09/03 03:07:58;;;;;;;1.67;0.88;;;14.70;70.80;;;;;;4115279;28;20511;-85
2022/09/03 03:09:59;;;;;;;1.80;0.80;;;14.70;70.80;;;;;;4115130;28;20050;-87
2022/09/03 03:12:00;;;;;;;0.95;0.75;;;14.70;71.00;;;;;;4131502;28;20054;-86
2022/09/03 03:14:02;;;;;;;3.78;1.25;;;14.70;71.10;;;;;;4148932;28;20418;-87
2022/09/03 03:16:07;;;;;;;1.52;0.90;;;14.30;70.90;;;;;;4131398;28;20098;-86
2022/09/03 03:18:12;;;;;;;3.17;0.95;;;14.60;71.20;;;;;;4115477;28;20066;-86
2022/09/03 03:20:14;;;;;;;2.05;0.70;;;14.60;71.40;;;;;;4148680;28;20076;-86
2022/09/03 03:22:15;;;;;;;2.42;0.90;;;14.60;71.40;;;;;;4157009;28;20041;-86
2022/09/03 03:24:16;;;;;;;1.83;0.93;;;14.60;71.60;;;;;;4165258;28;20044;-85
2022/09/03 03:26:21;;;;;;;2.65;0.70;;;14.60;71.60;;;;;;4147764;28;20503;-86
2022/09/03 03:28:22;;;;;;;0.98;0.80;;;14.60;71.70;;;;;;4148097;28;20459;-86
2022/09/03 03:30:23;;;;;;;1.75;0.90;;;14.50;71.60;;;;;;4131251;28;20141;-86
2022/09/03 03:32:23;;;;;;;2.25;0.90;;;14.60;71.90;;;;;;4148086;28;20050;-86
2022/09/03 03:34:24;;;;;;;1.45;0.90;;;14.60;71.90;;;;;;4147343;28;20042;-85
2022/09/03 03:36:29;;;;;;;3.20;1.05;;;14.60;71.90;;;;;;4136362;28;20058;-86
2022/09/03 03:38:30;;;;;;;1.15;0.90;;;14.60;72.00;;;;;;4139545;28;20061;-86
2022/09/03 03:40:31;;;;;;;2.80;1.00;;;14.60;72.10;;;;;;4139792;28;20050;-87
2022/09/03 03:42:33;;;;;;;2.67;0.80;;;14.50;72.10;;;;;;4165081;28;20042;-87
2022/09/03 03:44:34;;;;;;;2.00;0.80;;;14.50;72.20;;;;;;4157786;28;20587;-86
2022/09/03 03:46:37;;;;;;;3.80;1.10;;;14.50;72.20;;;;;;4156456;28;20037;-86
2022/09/03 03:48:40;;;;;;;1.40;1.10;;;14.50;72.30;;;;;;4166389;28;20057;-87
2022/09/03 03:50:40;;;;;;;3.95;1.00;;;14.50;72.30;;;;;;4150383;28;20053;-86
2022/09/03 03:52:42;;;;;;;2.30;0.90;;;14.50;72.40;;;;;;4167167;28;20573;-86
2022/09/03 03:54:44;;;;;;;1.00;0.90;;;14.60;72.50;;;;;;4160445;28;20136;-86
2022/09/03 03:56:45;;;;;;;1.33;0.90;;;14.60;72.30;;;;;;4119135;28;20584;-85
2022/09/03 03:58:47;;;;;;;1.75;1.00;;;14.60;72.40;;;;;;4134430;28;20050;-85
2022/09/03 04:00:48;;;;;;;1.02;0.90;;;14.60;72.30;;;;;;4117942;28;20050;-86
2022/09/03 04:02:51;;;;;;;6.28;1.08;;;14.70;72.40;;;;;;4133412;28;20051;-85
2022/09/03 04:04:52;;;;;;;2.47;0.85;;;14.70;72.50;;;;;;4149808;28;20053;-86
2022/09/03 04:06:53;;;;;;;2.70;0.90;;;14.70;72.50;;;;;;4150221;28;20577;-85
2022/09/03 04:08:55;;;;;;;1.08;0.80;;;14.70;72.40;;;;;;4150425;28;20038;-86
2022/09/03 04:11:00;;;;;;;1.23;0.90;;;14.70;72.50;;;;;;4133371;28;20050;-86
2022/09/03 04:13:02;;;;;;;2.10;0.75;;;14.70;72.60;;;;;;4116763;28;20122;-86
2022/09/03 04:15:03;;;;;;;2.25;0.95;;;14.70;72.50;;;;;;4133206;28;20046;-86
2022/09/03 04:17:06;;;;;;;2.50;0.90;;;14.70;72.60;;;;;;4132855;28;20462;-86
2022/09/03 04:19:07;;;;;;;2.15;1.10;;;14.70;72.70;;;;;;4133355;28;20058;-86
2022/09/03 04:21:18;;;;;;;3.47;1.17;;;14.70;73.40;;;;;;4133221;28;20543;-86
2022/09/03 04:23:19;;;;;;;3.13;0.85;;;14.70;72.90;;;;;;4133200;28;20134;-86
2022/09/03 04:25:19;;;;;;;2.80;0.95;;;14.70;72.70;;;;;;4150471;28;20100;-85
2022/09/03 04:27:21;;;;;;;3.75;1.10;;;14.70;72.80;;;;;;4133315;28;20431;-85
2022/09/03 04:29:24;;;;;;;3.65;1.10;;;14.70;73.50;;;;;;4134143;28;20519;-86
2022/09/03 04:31:24;;;;;;;1.85;0.90;;;14.70;73.00;;;;;;4151003;28;20050;-86
2022/09/03 04:33:28;;;;;;;3.03;1.08;;;14.70;73.10;;;;;;4133213;28;20120;-85
2022/09/03 04:35:32;;;;;;;2.25;0.90;;;14.70;73.10;;;;;;4133904;28;20408;-86
2022/09/03 04:37:33;;;;;;;1.92;1.30;;;14.70;73.20;;;;;;4150255;28;20042;-85
2022/09/03 04:39:34;;;;;;;2.13;0.90;;;14.70;73.40;;;;;;4150064;28;20535;-85
2022/09/03 04:41:35;;;;;;;3.08;0.80;;;14.70;73.40;;;;;;4148589;28;20050;-86
2022/09/03 04:43:37;;;;;;;1.65;1.10;;;14.60;73.50;;;;;;4132378;28;20042;-86
2022/09/03 04:45:37;;;;;;;1.50;0.95;;;14.60;73.60;;;;;;4131688;28;20101;-86
2022/09/03 04:47:38;;;;;;;2.35;1.02;;;14.60;73.70;;;;;;4148684;28;20492;-86
2022/09/03 04:49:39;;;;;;;1.48;1.00;;;14.60;73.70;;;;;;4115751;28;20050;-85
2022/09/03 04:51:39;;;;;;;2.88;1.05;;;14.60;74.40;;;;;;4131695;28;20174;-85
2022/09/03 04:53:44;;;;;;;1.60;1.10;;;14.60;73.90;;;;;;4117799;28;20069;-86
2022/09/03 04:55:45;;;;;;;2.83;0.90;;;14.60;74.00;;;;;;4123186;28;20046;-85
2022/09/03 04:57:45;;;;;;;4.70;1.45;;;14.60;74.00;;;;;;4158548;28;20104;-86
2022/09/03 04:59:46;;;;;;;2.50;1.10;;;14.60;74.20;;;;;;4134359;28;20058;-85
2022/09/03 05:01:48;;;;;;;3.38;1.40;;;14.50;74.20;;;;;;4135645;28;20061;-85
2022/09/03 05:03:51;;;;;;;1.85;0.90;;;14.50;74.20;;;;;;4139970;28;20516;-86
2022/09/03 05:05:55;;;;;;;3.40;1.23;;;14.50;74.30;;;;;;4157456;28;20109;-85
2022/09/03 05:08:02;;;;;;;1.42;0.88;;;14.50;74.40;;;;;;4133376;28;20081;-85
2022/09/03 05:10:08;;;;;;;1.33;0.85;;;14.50;74.60;;;;;;4133372;28;20054;-85
2022/09/03 05:12:09;;;;;;;3.83;1.38;;;14.50;74.70;;;;;;4117355;28;20051;-85
2022/09/03 05:14:11;;;;;;;3.58;1.17;;;14.50;74.70;;;;;;4150698;28;20081;-86
2022/09/03 05:16:14;;;;;;;1.00;0.90;;;14.50;74.70;;;;;;4133463;28;20046;-86
2022/09/03 05:18:14;;;;;;;2.72;1.30;;;14.40;74.70;;;;;;4166477;28;20049;-85
2022/09/03 05:20:16;;;;;;;1.05;0.90;;;14.40;74.80;;;;;;4151643;28;20034;-86
2022/09/03 05:22:20;;;;;;;2.33;1.15;;;14.40;75.00;;;;;;4150305;28;20050;-86
2022/09/03 05:24:20;;;;;;;1.45;1.13;;;14.40;75.10;;;;;;4133333;28;20069;-86
2022/09/03 05:26:26;;;;;;;1.02;0.88;;;14.40;75.20;;;;;;4133065;28;20050;-86
2022/09/03 05:28:29;;;;;;;3.53;1.05;;;14.30;75.30;;;;;;4166169;28;20061;-86
2022/09/03 05:30:30;;;;;;;6.95;1.35;;;14.40;75.30;;;;;;4116260;28;20091;-86
2022/09/03 05:32:31;;;;;;;1.55;1.20;;;14.40;75.50;;;;;;4165083;28;20120;-86
2022/09/03 05:34:33;;;;;;;1.17;0.93;;;14.40;75.60;;;;;;4116746;28;20047;-86
2022/09/03 05:36:37;;;;;;;2.45;1.33;;;14.20;75.70;;;;;;4116826;28;20436;-86
2022/09/03 05:38:39;;;;;;;1.67;0.90;;;14.30;75.80;;;;;;4116726;28;20046;-85
2022/09/03 05:40:40;;;;;;;1.05;1.00;;;14.30;75.90;;;;;;4131998;28;20141;-85
2022/09/03 05:42:41;;;;;;;2.58;1.20;;;14.30;75.90;;;;;;4132423;28;20057;-86
2022/09/03 05:44:42;;;;;;;3.85;1.40;;;14.00;75.90;;;;;;4132763;28;20408;-86
2022/09/03 05:46:44;;;;;;;1.20;1.10;;;14.30;76.20;;;;;;4143637;28;20515;-86
2022/09/03 05:48:47;;;;;;;2.55;1.20;;;14.30;76.20;;;;;;4166470;28;20122;-86
2022/09/03 05:50:48;;;;;;;1.58;1.10;;;14.30;76.40;;;;;;4148755;28;20046;-86
2022/09/03 05:52:49;;;;;;;2.15;1.50;;;14.30;76.50;;;;;;4136320;28;20535;-85
2022/09/03 05:54:52;;;;;;;1.63;1.30;;;14.30;76.70;;;;;;4144794;28;20045;-85
2022/09/03 05:56:53;;;;;;;8.32;1.15;;;14.30;76.90;;;;;;4155216;28;20053;-85
2022/09/03 05:58:59;;;;;;;3.70;1.00;;;14.40;77.10;;;;;;4148788;28;20041;-84
2022/09/03 06:01:10;;;;;;;3.55;1.45;;;14.40;77.00;;;;;;4143955;28;20046;-85
2022/09/03 06:03:11;;;;;;;2.95;1.10;;;14.50;77.20;;;;;;4165696;28;20081;-84
2022/09/03 06:05:12;;;;;;;2.95;1.83;;;14.50;77.00;;;;;;4165136;28;20034;-85
2022/09/03 06:07:14;;;;;;;2.58;1.00;;;14.60;76.90;;;;;;4165227;28;20049;-85
2022/09/03 06:09:19;;;;;;;2.22;1.02;;;14.60;76.80;;;;;;4166039;28;20099;-85
2022/09/03 06:11:26;;;;;;;1.13;0.90;;;14.60;76.90;;;;;;4165517;28;20057;-84
2022/09/03 06:13:28;;;;;;;1.52;0.80;;;14.70;76.90;;;;;;4140264;28;20072;-85
2022/09/03 06:15:30;;;;;;;1.63;0.95;;;14.70;76.80;;;;;;4133653;28;20050;-84
2022/09/03 06:17:32;;;;;;;1.25;1.02;;;14.80;76.60;;;;;;4155036;28;20537;-85
2022/09/03 06:19:33;;;;;;;1.27;1.10;;;14.90;76.60;;;;;;4149595;28;20053;-85
2022/09/03 06:21:35;;;;;;;2.58;1.27;;;14.90;76.60;;;;;;4154938;28;20522;-84
2022/09/03 06:23:37;;;;;;;4.75;1.10;;;14.90;76.60;;;;;;4155309;28;20042;-84
2022/09/03 06:25:38;;;;;;;1.40;1.15;;;15.00;76.50;;;;;;4154022;28;20050;-85
2022/09/03 06:27:38;;;;;;;1.23;1.10;;;15.00;76.40;;;;;;4154530;28;20553;-85
2022/09/03 06:29:40;;;;;;;2.05;1.15;;;15.00;76.30;;;;;;4147013;28;20050;-85
2022/09/03 06:31:41;;;;;;;4.05;0.95;;;15.10;76.40;;;;;;4147601;28;20046;-84
2022/09/03 06:33:42;;;;;;;2.45;0.98;;;15.20;76.30;;;;;;4132353;28;20423;-85
2022/09/03 06:35:43;;;;;;;5.07;1.30;;;15.20;76.10;;;;;;4147322;28;20393;-86
2022/09/03 06:37:45;;;;;;;1.52;0.80;;;15.30;76.10;;;;;;4147050;28;20056;-85
2022/09/03 06:39:46;;;;;;;6.55;1.30;;;15.40;75.90;;;;;;4164458;28;20056;-87
2022/09/03 06:41:50;;;;;;;1.75;1.10;;;15.50;75.60;;;;;;4123072;28;20070;-84
2022/09/03 06:43:53;;;;;;;3.58;0.90;;;15.60;75.40;;;;;;4156896;28;20045;-85
2022/09/03 06:45:56;;;;;;;2.15;0.80;;;15.60;75.40;;;;;;4148196;28;20050;-84
2022/09/03 06:47:56;;;;;;;3.15;1.00;;;15.80;75.40;;;;;;4149833;28;20125;-83
2022/09/03 06:49:59;;;;;;;3.30;1.02;;;15.90;75.10;;;;;;4147796;28;20056;-85
2022/09/03 06:52:00;;;;;;;1.52;1.00;;;15.90;74.90;;;;;;4147595;28;20081;-83
2022/09/03 06:54:06;;;;;;;4.25;1.65;;;16.10;75.30;;;;;;4165001;28;20057;-86
2022/09/03 06:56:11;;;;;;;1.67;1.15;;;16.10;74.50;;;;;;4163636;28;20053;-86
2022/09/03 06:58:12;;;;;;;3.38;1.35;;;16.30;74.70;;;;;;4163450;28;20064;-84
2022/09/03 07:00:14;;;;;;;3.53;2.03;;;16.40;74.40;;;;;;4133105;28;20481;-84
2022/09/03 07:02:15;;;;;;;3.85;1.30;;;16.50;74.00;;;;;;4146975;28;20103;-85
2022/09/03 07:04:16;;;;;;;2.15;1.10;;;16.60;73.80;;;;;;4163623;28;20499;-86
2022/09/03 07:06:18;;;;;;;4.30;1.08;;;16.70;73.60;;;;;;4147147;28;20053;-85
2022/09/03 07:08:19;;;;;;;1.63;1.00;;;16.80;73.50;;;;;;4147812;28;20380;-85
2022/09/03 07:10:20;;;;;;;1.42;1.00;;;16.90;73.30;;;;;;4164501;28;20052;-85
2022/09/03 07:12:21;;;;;;;2.78;1.10;;;17.00;73.20;;;;;;4164884;28;20045;-85
2022/09/03 07:14:23;;;;;;;2.70;1.00;;;17.20;72.90;;;;;;4164835;28;20380;-87
2022/09/03 07:16:35;;;;;;;2.10;1.40;;;17.20;72.30;;;;;;4152617;28;20050;-85
2022/09/03 07:18:37;;;;;;;3.42;1.10;;;17.40;72.50;;;;;;4148190;28;20432;-85
2022/09/03 07:20:38;;;;;;;2.80;1.38;;;17.50;72.00;;;;;;4148590;28;20045;-86
2022/09/03 07:22:39;;;;;;;2.00;0.93;;;17.70;71.60;;;;;;4148427;28;20121;-85
2022/09/03 07:24:40;;;;;;;2.85;1.00;;;17.80;71.50;;;;;;4147836;28;20078;-85
2022/09/03 07:26:47;;;;;;;3.80;1.02;;;17.90;70.90;;;;;;4148576;28;20357;-85
2022/09/03 07:28:48;;;;;;;2.95;1.10;;;17.90;70.60;;;;;;4154501;28;20061;-84
2022/09/03 07:30:51;;;;;;;7.35;1.17;;;18.00;70.40;;;;;;4164184;28;20515;-84
2022/09/03 07:32:52;;;;;;;2.88;1.13;;;18.10;70.30;;;;;;4164731;28;20045;-84
2022/09/03 07:34:53;;;;;;;1.92;0.98;;;18.30;70.10;;;;;;4164952;28;20055;-84
2022/09/03 07:36:54;;;;;;;3.60;0.85;;;18.50;70.00;;;;;;4165445;28;20049;-86
2022/09/03 07:38:57;;;;;;;3.60;0.90;;;18.60;69.60;;;;;;4146904;28;20050;-85
2022/09/03 07:41:00;;;;;;;7.80;1.00;;;18.60;69.30;;;;;;4131743;28;20128;-85
2022/09/03 07:43:03;;;;;;;1.35;0.90;;;18.70;68.90;;;;;;4148018;28;20527;-84
2022/09/03 07:45:10;;;;;;;2.72;0.90;;;18.80;68.70;;;;;;4165350;28;20530;-85
2022/09/03 07:47:12;;;;;;;7.22;0.98;;;18.90;68.40;;;;;;4164530;28;20594;-85
2022/09/03 07:49:13;;;;;;;1.90;0.70;;;19.10;68.10;;;;;;4163047;28;20041;-86
2022/09/03 07:51:14;;;;;;;1.90;0.88;;;19.30;67.70;;;;;;4149144;28;20042;-85
2022/09/03 07:53:16;;;;;;;4.05;0.70;;;19.40;67.40;;;;;;4149385;28;20038;-86
2022/09/03 07:55:16;;;;;;;4.07;0.80;;;19.50;67.10;;;;;;4131502;28;20050;-87
2022/09/03 07:57:18;;;;;;;4.63;1.20;;;19.60;67.00;;;;;;4115674;28;20145;-87
2022/09/03 07:59:21;;;;;;;4.00;0.82;;;19.90;66.60;;;;;;4148358;28;20049;-86
2022/09/03 08:01:25;;;;;;;1.17;0.68;;;19.90;66.20;;;;;;4115205;28;20501;-87
2022/09/03 08:03:26;;;;;;;3.70;1.02;;;20.10;65.70;;;;;;4148249;28;20045;-86
2022/09/03 08:05:27;;;;;;;1.30;0.80;;;20.10;65.40;;;;;;4131041;28;20046;-86
2022/09/03 08:07:29;;;;;;;2.15;0.75;;;20.20;65.30;;;;;;4132028;28;20081;-86
2022/09/03 08:09:32;;;;;;;4.40;0.90;;;20.20;64.70;;;;;;4131161;28;20054;-87
2022/09/03 08:11:37;;;;;;;4.72;1.30;;;20.30;64.30;;;;;;4151310;28;20049;-86
2022/09/03 08:13:44;;;;;;;4.93;1.02;;;20.50;64.10;;;;;;4149844;28;20037;-87
2022/09/03 08:15:55;;;;;;;2.67;0.68;;;20.40;63.30;;;;;;4148493;28;20050;-85
2022/09/03 08:17:56;;;;;;;2.92;1.13;;;20.60;63.80;;;;;;4148438;28;20064;-86
2022/09/03 08:19:57;;;;;;;3.50;0.98;;;20.70;63.80;;;;;;4147330;28;20515;-85
2022/09/03 08:21:59;;;;;;;2.17;1.20;;;20.90;63.70;;;;;;4134195;28;20058;-86
2022/09/03 08:24:03;;;;;;;1.23;0.93;;;21.00;63.00;;;;;;4148545;28;20116;-87
2022/09/03 08:26:05;;;;;;;1.52;0.70;;;21.10;62.90;;;;;;4149847;28;20106;-86
2022/09/03 08:28:06;;;;;;;3.20;0.90;;;21.20;62.10;;;;;;4150159;28;20268;-86
2022/09/03 08:30:10;;;;;;;1.33;0.57;;;21.30;61.90;;;;;;4136587;28;20141;-86
2022/09/03 08:32:12;;;;;;;5.10;0.95;;;21.40;61.90;;;;;;4156514;28;20536;-89
2022/09/03 08:34:13;;;;;;;1.70;0.80;;;21.50;61.80;;;;;;4138192;28;20492;-89
2022/09/03 08:36:31;;;;;;;2.10;0.80;;;21.70;61.50;;;;;;4154103;28;20082;-86
2022/09/03 08:38:33;;;;;;;1.10;0.80;;;21.80;61.10;;;;;;4135402;28;20507;-87
2022/09/03 08:40:37;;;;;;;0.98;0.70;;;22.10;60.90;;;;;;4148859;28;20050;-87
2022/09/03 08:42:48;;;;;;;1.38;0.65;;;22.20;60.20;;;;;;4151299;28;20466;-87
2022/09/03 08:44:55;;;;;;;4.35;0.98;;;22.20;59.90;;;;;;4153218;28;20072;-86
2022/09/03 08:47:04;;;;;;;1.27;0.80;;;22.30;59.80;;;;;;4156373;28;20053;-88
2022/09/03 08:49:08;;;;;;;;;;;22.40;59.40;;;;;;4138511;28;20054;-87
2022/09/03 08:51:12;;;;;;;0.80;0.70;;;22.50;57.60;;;;;;4158510;28;19921;-87
2022/09/03 08:53:54;;;;;;;1.75;0.70;;;22.60;58.60;;;;;;4124654;28;20053;-88
2022/09/03 08:56:02;;;;;;;1.58;0.82;;;22.90;57.30;;;;;;4126728;28;20043;-87
2022/09/03 08:58:10;;;;;;;3.58;0.75;;;22.90;58.40;;;;;;4140691;28;20529;-87
2022/09/03 09:00:12;;;;;;;1.23;0.60;;;23.00;57.90;;;;;;4164022;28;20064;-88
2022/09/03 09:02:31;;;;;;;2.65;0.98;;;23.10;58.20;;;;;;4181973;28;20037;-88
2022/09/03 09:04:41;;;;;;;3.92;0.90;;;23.40;58.30;;;;;;4184149;28;20076;-87
2022/09/03 09:07:01;;;;;;;2.72;0.70;;;23.60;57.50;;;;;;4165736;28;20081;-86
2022/09/03 09:09:13;;;;;;;1.88;0.70;;;23.80;56.30;;;;;;4163186;28;20078;-85
2022/09/03 09:11:47;;;;;;;1.63;0.70;;;23.90;55.90;;;;;;4146497;28;20042;-85
2022/09/03 09:13:59;;;;;;;5.15;0.80;;;24.10;55.20;;;;;;4131751;28;20077;-85
2022/09/03 09:16:14;;;;;;;2.92;0.90;;;24.20;55.50;;;;;;4182148;28;20076;-85
2022/09/03 09:18:14;;;;;;;4.00;0.95;;;24.40;55.80;;;;;;4185196;28;20044;-85
2022/09/03 09:20:18;;;;;;;2.75;0.63;;;24.50;55.50;;;;;;4166206;28;20041;-85
2022/09/03 09:22:43;;;;;;;2.00;0.90;;;24.80;54.90;;;;;;4177450;28;20044;-86
2022/09/03 09:25:00;;;;;;;3.60;0.70;;;25.00;54.60;;;;;;4159148;28;20060;-90
2022/09/03 09:27:15;;;;;;;1.80;0.63;;;25.30;53.90;;;;;;4161576;28;20041;-87
2022/09/03 09:29:16;;;;;;;3.00;0.90;;;25.50;53.40;;;;;;4151376;28;20049;-86
2022/09/03 09:31:17;;;;;;;1.02;0.82;;;25.60;53.00;;;;;;4133263;28;20050;-85
2022/09/03 09:33:19;;;;;;;1.77;1.00;;;26.10;52.70;;;;;;4132354;28;20129;-88
2022/09/03 09:35:32;;;;;;;2.90;0.90;;;26.30;51.70;;;;;;4150863;28;20115;-88
2022/09/03 09:37:34;;;;;;;1.67;0.60;;;26.60;50.90;;;;;;4152747;28;20069;-89
2022/09/03 09:39:35;;;;;;;5.45;1.52;;;26.90;51.50;;;;;;4135814;28;20480;-87
2022/09/03 09:41:37;;;;;;;1.65;0.82;;;27.10;51.00;;;;;;4133018;28;20054;-87
2022/09/03 09:43:38;;;;;;;6.03;1.00;;;27.40;50.70;;;;;;4133524;28;20046;-87
2022/09/03 09:45:43;;;;;;;3.95;0.73;;;27.40;50.20;;;;;;4143980;28;20133;-88
2022/09/03 09:47:46;;;;;;;3.55;0.70;;;27.30;49.50;;;;;;4162809;28;20060;-86
2022/09/03 09:50:02;;;;;;;1.55;0.68;;;26.90;49.30;;;;;;4176439;28;20057;-85
2022/09/03 09:52:10;;;;;;;8.52;0.77;;;27.00;49.70;;;;;;4142891;28;20047;-85
2022/09/03 09:54:20;;;;;;;2.28;0.85;;;27.10;49.90;;;;;;4157595;28;20129;-87
2022/09/03 09:56:28;;;;;;;3.75;1.13;;;27.40;50.20;;;;;;4154804;28;20053;-85
2022/09/03 09:58:33;;;;;;;6.50;0.80;;;27.40;49.10;;;;;;4157099;28;20058;-84
2022/09/03 10:00:36;;;;;;;0.90;0.60;;;27.40;49.60;;;;;;4159342;28;20057;-85
2022/09/03 10:02:45;;;;;;;1.58;0.68;;;27.60;49.90;;;;;;4159615;28;20053;-85
2022/09/03 10:04:47;;;;;;;1.67;0.80;;;27.90;49.60;;;;;;4156146;28;20075;-83
2022/09/03 10:06:55;;;;;;;2.78;0.98;;;27.80;49.30;;;;;;4156276;28;20053;-84
2022/09/03 10:09:11;;;;;;;0.63;0.50;;;27.60;48.90;;;;;;4156913;28;20135;-85
2022/09/03 10:11:13;;;;;;;0.82;0.40;;;27.70;48.50;;;;;;4131486;28;20043;-85
2022/09/03 10:13:20;;;;;;;1.02;0.70;;;27.70;48.90;;;;;;4128791;28;20057;-85
2022/09/03 10:15:30;;;;;;;1.52;0.60;;;27.80;49.00;;;;;;4133523;28;20104;-84
2022/09/03 10:17:47;;;;;;;1.58;0.73;;;28.30;49.20;;;;;;4137298;28;20794;-85
2022/09/03 10:20:26;;;;;;;4.18;0.88;;;28.50;47.30;;;;;;4149454;28;20049;-85
2022/09/03 10:22:27;;;;;;;0.57;0.52;;;28.50;46.70;;;;;;4141048;28;20038;-85
2022/09/03 10:24:50;;;;;;;3.75;0.75;;;28.10;47.50;;;;;;4135944;28;20042;-84
2022/09/03 10:26:51;;;;;;;2.08;0.90;;;28.10;47.50;;;;;;4135590;28;20047;-84
2022/09/03 10:28:57;;;;;;;1.40;0.77;;;28.40;47.60;;;;;;4134723;28;20050;-83
2022/09/03 10:31:35;;;;;;;5.60;1.00;;;28.60;47.20;;;;;;4148057;28;20042;-84
2022/09/03 10:34:05;;;;;;;4.82;0.65;;;28.80;45.30;;;;;;4148591;28;20538;-84
2022/09/03 10:36:18;;;;;;;1.20;0.70;;;29.10;45.20;;;;;;4155258;28;20045;-84
2022/09/03 10:38:36;;;;;;;6.63;0.60;;;29.20;46.90;;;;;;4146687;28;20030;-84
2022/09/03 10:40:42;;;;;;;2.07;0.60;;;29.20;45.30;;;;;;4156862;28;20054;-83
2022/09/03 10:42:56;;;;;;;1.00;0.47;;;29.30;46.10;;;;;;4174155;28;20081;-84
2022/09/03 10:45:15;;;;;;;1.92;0.80;;;29.60;44.80;;;;;;4171497;28;20056;-85
2022/09/03 10:47:18;;;;;;;;;;;29.60;44.80;;;;;;4151063;28;20177;-84
2022/09/03 10:49:47;;;;;;;2.03;0.68;;;29.30;43.10;;;;;;4166994;28;19928;-84
2022/09/03 10:51:56;;;;;;;;;;;29.30;45.20;;;;;;4166637;28;20171;-84
2022/09/03 10:54:38;;;;;;;6.03;0.70;;;29.40;43.40;;;;;;4165801;28;20387;-84
2022/09/03 10:56:50;;;;;;;3.03;0.63;;;29.40;44.80;;;;;;4132158;28;20054;-85
2022/09/03 10:58:57;;;;;;;2.13;0.90;;;29.70;45.30;;;;;;4150166;28;20104;-84
2022/09/03 11:01:20;;;;;;;1.13;0.90;;;29.70;44.80;;;;;;4148888;28;20049;-84
2022/09/03 11:03:50;;;;;;;6.68;0.70;;;29.80;42.70;;;;;;4103953;28;20054;-84